O Brien, Oregon
Current Conditions -  °F | °C
As of 9:56 AM on Wednesday 28 Jan 2015 (Local Time) from KBOK Reporting Station
Clear Clear  
Wind Chill: 49°   Ceiling: Unl
Heat Index: 49°   Visibility: 10mi
Dew Point: 49°   Wind: 0mph
Humidity: 100%   Direction: NA
Pressure: 30.3"   Gusts: NA
Location:  42.0377°N, 123.721°W
Report Text: KBOK 281756Z AUTO 00000KT 10SM CLR 09/09 A3030 RMK AO2 51005 T00940094 10094 20066 SLP264
Loading
Personal Weather Stations






























Interactive Weather Map New forecast layout! Learn more

10-Day Weather Forecast

Advertisements
Track Severe Weather on mobile